createdAt,value
2017-10-14T00:01:14.710Z,10.70
2017-10-14T00:03:42.262Z,10.70
2017-10-14T00:06:10.555Z,10.70
2017-10-14T00:08:38.116Z,10.60
2017-10-14T00:11:05.650Z,10.80
2017-10-14T00:13:33.984Z,10.80
2017-10-14T00:16:02.288Z,10.80
2017-10-14T00:18:29.860Z,10.80
2017-10-14T00:20:58.168Z,10.70
2017-10-14T00:23:25.716Z,10.70
2017-10-14T00:25:54.039Z,10.60
2017-10-14T00:28:22.355Z,10.50
2017-10-14T00:30:50.695Z,10.40
2017-10-14T00:33:18.238Z,10.40
2017-10-14T00:35:45.798Z,10.40
2017-10-14T00:38:13.342Z,10.30
2017-10-14T00:40:40.899Z,10.20
2017-10-14T00:43:08.465Z,10.20
2017-10-14T00:45:36.019Z,10.10
2017-10-14T00:48:05.665Z,10.10
2017-10-14T00:50:33.244Z,10.10
2017-10-14T00:53:00.782Z,10.10
2017-10-14T00:55:28.347Z,10.20
2017-10-14T00:57:55.880Z,10.20
2017-10-14T01:00:23.447Z,10.30
2017-10-14T01:02:50.983Z,10.30
2017-10-14T01:05:18.542Z,10.40
2017-10-14T01:07:46.081Z,10.40
2017-10-14T01:10:14.411Z,10.40
2017-10-14T01:12:41.953Z,10.40
2017-10-14T01:15:09.522Z,10.40
2017-10-14T01:17:53.874Z,10.40
2017-10-14T01:20:21.435Z,10.40
2017-10-14T01:22:48.972Z,10.40
2017-10-14T01:25:16.535Z,10.30
2017-10-14T01:27:44.082Z,10.30
2017-10-14T01:30:11.655Z,10.40
2017-10-14T01:32:39.194Z,10.40
2017-10-14T01:35:07.499Z,10.40
2017-10-14T01:37:35.061Z,10.40
2017-10-14T01:40:02.612Z,10.30
2017-10-14T01:42:30.179Z,10.30
2017-10-14T01:44:57.720Z,10.20
2017-10-14T01:47:26.042Z,10.10
2017-10-14T01:49:53.584Z,10.10
2017-10-14T01:52:21.155Z,10.10
2017-10-14T01:54:48.696Z,10.10
2017-10-14T01:57:16.263Z,10.10
2017-10-14T01:59:43.807Z,10.00
2017-10-14T02:02:11.368Z,10.00
2017-10-14T02:04:38.897Z,9.90
2017-10-14T02:07:07.223Z,10.10
2017-10-14T02:09:34.768Z,10.10
2017-10-14T02:12:02.327Z,10.10
2017-10-14T02:14:29.859Z,10.20
2017-10-14T02:16:58.201Z,10.10
2017-10-14T02:19:25.740Z,10.10
2017-10-14T02:21:53.295Z,9.90
2017-10-14T02:24:20.839Z,9.90
2017-10-14T02:26:48.403Z,9.90
2017-10-14T02:29:15.947Z,10.00
2017-10-14T02:31:44.241Z,9.80
2017-10-14T02:34:11.795Z,9.80
2017-10-14T02:36:39.326Z,9.80
2017-10-14T02:39:07.660Z,9.70
2017-10-14T02:41:35.196Z,9.70
2017-10-14T02:44:02.761Z,9.70
2017-10-14T02:46:30.303Z,9.70
2017-10-14T02:48:58.630Z,9.60
2017-10-14T02:51:26.159Z,9.60
2017-10-14T02:53:54.482Z,9.60
2017-10-14T02:56:22.025Z,9.50
2017-10-14T02:58:49.587Z,9.60
2017-10-14T03:01:17.129Z,9.50
2017-10-14T03:03:44.687Z,9.40
2017-10-14T03:06:12.232Z,9.40
2017-10-14T03:08:39.802Z,9.30
2017-10-14T03:11:07.332Z,9.30
2017-10-14T03:13:35.650Z,9.30
2017-10-14T03:16:03.195Z,9.30
2017-10-14T03:18:30.754Z,9.30
2017-10-14T03:20:58.281Z,9.30
2017-10-14T03:23:26.604Z,9.30
2017-10-14T03:25:54.131Z,9.30
2017-10-14T03:28:21.683Z,9.30
2017-10-14T03:30:49.984Z,9.20
2017-10-14T03:33:17.560Z,9.20
2017-10-14T03:35:45.092Z,9.20
2017-10-14T03:38:12.627Z,9.20
2017-10-14T03:40:40.184Z,9.20
2017-10-14T03:43:07.711Z,9.20
2017-10-14T03:45:35.265Z,9.10
2017-10-14T03:48:02.818Z,9.10
2017-10-14T03:50:30.373Z,9.00
2017-10-14T03:52:57.912Z,8.90
2017-10-14T03:55:25.480Z,8.90
2017-10-14T03:58:09.536Z,8.90
2017-10-14T04:00:37.087Z,9.00
2017-10-14T04:03:05.376Z,9.00
2017-10-14T04:05:32.936Z,9.00
2017-10-14T04:08:00.484Z,9.10
2017-10-14T04:10:28.042Z,9.10
2017-10-14T04:12:55.581Z,8.90
2017-10-14T04:15:23.911Z,8.90
2017-10-14T04:18:01.528Z,8.90
2017-10-14T04:20:29.078Z,8.90
2017-10-14T04:22:56.623Z,8.90
2017-10-14T04:25:24.183Z,8.90
2017-10-14T04:27:51.719Z,8.90
2017-10-14T04:30:19.274Z,9.00
2017-10-14T04:32:46.804Z,9.00
2017-10-14T04:35:15.131Z,8.90
2017-10-14T04:37:42.668Z,8.90
2017-10-14T04:40:10.227Z,9.00
2017-10-14T04:42:37.759Z,8.90
2017-10-14T04:45:06.099Z,9.00
2017-10-14T04:47:33.636Z,9.00
2017-10-14T04:50:01.217Z,9.00
2017-10-14T04:52:28.758Z,9.00
2017-10-14T04:54:56.282Z,9.00
2017-10-14T04:57:23.868Z,9.10
2017-10-14T04:59:51.412Z,9.10
2017-10-14T05:02:18.972Z,9.00
2017-10-14T05:04:46.511Z,8.90
2017-10-14T05:07:14.838Z,9.00
2017-10-14T05:09:42.373Z,9.00
2017-10-14T05:12:09.968Z,9.10
2017-10-14T05:14:37.504Z,9.10
2017-10-14T05:17:05.050Z,9.00
2017-10-14T05:19:32.579Z,9.10
2017-10-14T05:22:00.130Z,9.00
2017-10-14T05:24:27.664Z,8.90
2017-10-14T05:26:55.227Z,8.80
2017-10-14T05:29:22.758Z,8.90
2017-10-14T05:31:50.312Z,8.90
2017-10-14T05:34:18.744Z,8.90
2017-10-14T05:36:47.112Z,9.00
2017-10-14T05:39:14.641Z,9.00
2017-10-14T05:41:42.204Z,9.00
2017-10-14T05:44:09.734Z,8.90
2017-10-14T05:46:38.062Z,8.90
2017-10-14T05:49:05.594Z,8.80
2017-10-14T05:51:33.122Z,8.90
2017-10-14T05:54:01.446Z,8.90
2017-10-14T05:56:28.976Z,8.90
2017-10-14T05:58:57.299Z,8.90
2017-10-14T06:01:24.831Z,8.80
2017-10-14T06:03:52.387Z,8.90
2017-10-14T06:06:19.919Z,8.80
2017-10-14T06:08:48.246Z,8.60
2017-10-14T06:11:15.780Z,8.50
2017-10-14T06:13:43.340Z,8.50
2017-10-14T06:16:10.884Z,8.50
2017-10-14T06:18:39.349Z,8.50
2017-10-14T06:21:06.897Z,8.50
2017-10-14T06:23:34.447Z,8.50
2017-10-14T06:26:01.987Z,8.40
2017-10-14T06:28:29.543Z,8.50
2017-10-14T06:30:57.083Z,8.50
2017-10-14T06:33:24.635Z,8.60
2017-10-14T06:35:52.171Z,8.50
2017-10-14T06:38:20.499Z,8.50
2017-10-14T06:40:48.032Z,8.50
2017-10-14T06:43:15.659Z,8.30
2017-10-14T06:45:43.191Z,8.30
2017-10-14T06:48:10.753Z,8.20
2017-10-14T06:50:38.278Z,8.20
2017-10-14T06:53:05.837Z,8.30
2017-10-14T06:55:33.371Z,8.40
2017-10-14T06:58:01.667Z,8.40
2017-10-14T07:00:29.230Z,8.40
2017-10-14T07:02:56.758Z,8.50
2017-10-14T07:05:24.320Z,8.60
2017-10-14T07:07:52.618Z,8.60
2017-10-14T07:10:20.930Z,8.70
2017-10-14T07:12:48.464Z,8.60
2017-10-14T07:15:16.025Z,8.70
2017-10-14T07:17:43.563Z,8.80
2017-10-14T07:20:11.883Z,8.80
2017-10-14T07:22:39.414Z,8.70
2017-10-14T07:25:06.967Z,8.80
2017-10-14T07:27:35.258Z,8.90
2017-10-14T07:30:02.811Z,8.90
2017-10-14T07:32:30.341Z,9.00
2017-10-14T07:34:57.904Z,9.10
2017-10-14T07:37:25.435Z,9.20
2017-10-14T07:39:52.990Z,9.20
2017-10-14T07:42:20.522Z,9.30
2017-10-14T07:44:48.098Z,9.40
2017-10-14T07:47:15.635Z,9.40
2017-10-14T07:49:43.195Z,9.40
2017-10-14T07:52:10.739Z,9.50
2017-10-14T07:54:39.051Z,9.60
2017-10-14T07:57:06.622Z,9.60
2017-10-14T07:59:34.155Z,9.60
2017-10-14T08:02:02.005Z,9.60
2017-10-14T08:04:29.744Z,9.70
2017-10-14T08:06:58.100Z,9.90
2017-10-14T08:09:25.643Z,9.90
2017-10-14T08:11:53.198Z,9.90
2017-10-14T08:14:20.738Z,10.20
2017-10-14T08:16:48.303Z,10.40
2017-10-14T08:19:15.834Z,10.60
2017-10-14T08:21:44.167Z,10.90
2017-10-14T08:24:11.719Z,10.90
2017-10-14T08:26:39.330Z,11.00
2017-10-14T08:29:06.958Z,11.10
2017-10-14T08:31:34.659Z,11.20
2017-10-14T08:34:02.963Z,11.50
2017-10-14T08:36:30.520Z,11.50
2017-10-14T08:38:58.055Z,11.70
2017-10-14T08:41:26.382Z,12.00
2017-10-14T08:43:53.923Z,12.00
2017-10-14T08:46:21.488Z,12.10
2017-10-14T08:48:49.020Z,12.30
2017-10-14T08:51:16.675Z,12.50
2017-10-14T08:53:44.979Z,12.90
2017-10-14T08:56:12.636Z,12.80
2017-10-14T08:58:40.171Z,12.90
2017-10-14T09:01:07.708Z,13.00
2017-10-14T09:03:35.270Z,13.10
2017-10-14T09:06:03.591Z,13.50
2017-10-14T09:08:31.150Z,13.50
2017-10-14T09:10:58.690Z,13.70
2017-10-14T09:13:27.207Z,13.80
2017-10-14T09:15:54.795Z,13.80
2017-10-14T09:18:22.347Z,14.00
2017-10-14T09:20:49.880Z,14.20
2017-10-14T09:23:17.440Z,14.30
2017-10-14T09:25:46.114Z,14.40
2017-10-14T09:28:13.726Z,14.50
2017-10-14T09:30:42.035Z,14.70
2017-10-14T09:33:10.710Z,14.90
2017-10-14T09:35:39.040Z,15.00
2017-10-14T09:38:06.608Z,15.00
2017-10-14T09:40:34.144Z,15.10
2017-10-14T09:43:01.708Z,15.20
2017-10-14T09:45:29.230Z,15.30
2017-10-14T09:47:56.782Z,15.50
2017-10-14T09:50:24.319Z,15.60
2017-10-14T09:52:51.870Z,15.70
2017-10-14T09:55:19.404Z,15.80
2017-10-14T09:57:46.971Z,15.80
2017-10-14T10:00:14.504Z,16.00
2017-10-14T10:02:42.798Z,16.20
2017-10-14T10:05:10.351Z,16.10
2017-10-14T10:07:38.646Z,16.30
2017-10-14T10:10:06.199Z,16.30
2017-10-14T10:12:33.727Z,16.50
2017-10-14T10:15:01.284Z,16.40
2017-10-14T10:17:29.599Z,16.80
2017-10-14T10:19:57.158Z,16.70
2017-10-14T10:22:24.695Z,16.90
2017-10-14T10:24:53.015Z,16.90
2017-10-14T10:27:20.534Z,16.90
2017-10-14T10:29:48.850Z,17.10
2017-10-14T10:32:16.377Z,17.10
2017-10-14T10:34:44.695Z,17.30
2017-10-14T10:37:12.219Z,17.20
2017-10-14T10:39:39.771Z,17.40
2017-10-14T10:42:08.067Z,17.70
2017-10-14T10:44:35.619Z,17.60
2017-10-14T10:47:03.158Z,17.70
2017-10-14T10:49:31.476Z,18.00
2017-10-14T10:51:59.015Z,18.00
2017-10-14T10:54:26.566Z,18.00
2017-10-14T10:56:54.863Z,18.10
2017-10-14T10:59:22.430Z,18.10
2017-10-14T11:01:49.960Z,18.30
2017-10-14T11:04:18.287Z,18.40
2017-10-14T11:06:45.819Z,18.40
2017-10-14T11:09:13.391Z,18.50
2017-10-14T11:11:40.923Z,18.50
2017-10-14T11:14:08.452Z,18.60
2017-10-14T11:16:36.007Z,18.60
2017-10-14T11:19:03.552Z,18.50
2017-10-14T11:21:31.104Z,18.70
2017-10-14T11:23:58.627Z,18.70
2017-10-14T11:26:26.179Z,18.70
2017-10-14T11:28:54.471Z,18.80
2017-10-14T11:31:22.024Z,18.80
2017-10-14T11:33:49.554Z,18.90
2017-10-14T11:36:17.114Z,19.00
2017-10-14T11:38:44.638Z,18.90
2017-10-14T11:41:12.207Z,18.90
2017-10-14T11:43:39.731Z,19.00
2017-10-14T11:46:07.280Z,19.00
2017-10-14T11:48:35.476Z,19.20
2017-10-14T11:51:03.167Z,19.10
2017-10-14T11:53:30.694Z,19.00
2017-10-14T11:55:58.245Z,19.20
2017-10-14T11:58:25.774Z,19.20
2017-10-14T12:00:54.092Z,19.30
2017-10-14T12:03:21.617Z,19.30
2017-10-14T12:05:49.909Z,19.40
2017-10-14T12:08:17.471Z,19.40
2017-10-14T12:10:44.998Z,19.40
2017-10-14T12:13:12.560Z,19.60
2017-10-14T12:15:40.093Z,19.50
2017-10-14T12:18:07.643Z,19.50
2017-10-14T12:20:35.168Z,19.40
2017-10-14T12:23:02.718Z,19.40
2017-10-14T12:25:30.255Z,19.50
2017-10-14T12:27:58.589Z,19.50
2017-10-14T12:30:26.119Z,19.50
2017-10-14T12:32:54.439Z,19.40
2017-10-14T12:35:21.972Z,19.40
2017-10-14T12:37:49.528Z,19.40
2017-10-14T12:40:17.051Z,19.50
2017-10-14T12:42:44.611Z,19.70
2017-10-14T12:45:12.140Z,19.70
2017-10-14T12:47:39.683Z,19.70
2017-10-14T12:50:07.216Z,19.70
2017-10-14T12:52:34.763Z,19.80
2017-10-14T12:55:03.055Z,19.80
2017-10-14T12:57:30.602Z,19.80
2017-10-14T12:59:58.893Z,19.80
2017-10-14T13:02:26.455Z,19.80
2017-10-14T13:04:53.988Z,19.90
2017-10-14T13:07:22.374Z,19.90
2017-10-14T13:09:50.667Z,19.80
2017-10-14T13:12:18.233Z,19.80
2017-10-14T13:14:45.759Z,19.70
2017-10-14T13:17:14.067Z,19.70
2017-10-14T13:19:41.627Z,19.70
2017-10-14T13:22:09.150Z,19.60
2017-10-14T13:24:36.707Z,19.50
2017-10-14T13:27:04.233Z,19.50
2017-10-14T13:29:31.792Z,19.50
2017-10-14T13:31:59.315Z,19.60
2017-10-14T13:34:26.879Z,19.80
2017-10-14T13:36:54.410Z,19.80
2017-10-14T13:39:22.003Z,19.80
2017-10-14T13:41:49.587Z,19.70
2017-10-14T13:44:17.134Z,19.70
2017-10-14T13:46:44.708Z,19.80
2017-10-14T13:49:12.272Z,19.70
2017-10-14T13:51:39.805Z,19.70
2017-10-14T13:54:07.371Z,19.80
2017-10-14T13:56:34.898Z,19.80
2017-10-14T13:59:03.211Z,19.60
2017-10-14T14:01:30.746Z,19.60
2017-10-14T14:03:59.070Z,19.70
2017-10-14T14:06:27.027Z,19.70
2017-10-14T14:08:54.816Z,19.70
2017-10-14T14:11:22.460Z,19.70
2017-10-14T14:13:50.008Z,19.70
2017-10-14T14:16:17.565Z,19.70
2017-10-14T14:18:46.364Z,19.60
2017-10-14T14:21:14.238Z,19.60
2017-10-14T14:23:42.836Z,19.70
2017-10-14T14:26:15.784Z,19.60
2017-10-14T14:28:43.326Z,19.60
2017-10-14T14:31:11.642Z,19.60
2017-10-14T14:33:39.173Z,19.60
2017-10-14T14:36:06.746Z,19.60
2017-10-14T14:38:34.290Z,19.50
2017-10-14T14:41:02.606Z,19.40
2017-10-14T14:43:30.131Z,19.40
2017-10-14T14:45:57.674Z,19.40
2017-10-14T14:48:25.971Z,19.40
2017-10-14T14:50:53.530Z,19.40
2017-10-14T14:53:21.071Z,19.30
2017-10-14T14:55:49.392Z,19.20
2017-10-14T14:58:16.927Z,19.20
2017-10-14T15:00:44.475Z,19.20
2017-10-14T15:03:12.765Z,19.20
2017-10-14T15:05:40.327Z,19.20
2017-10-14T15:08:07.861Z,19.20
2017-10-14T15:10:36.207Z,19.10
2017-10-14T15:13:03.744Z,19.10
2017-10-14T15:15:31.279Z,19.00
2017-10-14T15:17:58.845Z,18.80
2017-10-14T15:20:26.366Z,18.80
2017-10-14T15:22:53.928Z,18.80
2017-10-14T15:25:21.454Z,18.80
2017-10-14T15:27:49.003Z,18.80
2017-10-14T15:30:16.530Z,18.80
2017-10-14T15:32:44.078Z,18.80
2017-10-14T15:35:12.375Z,18.70
2017-10-14T15:37:39.927Z,18.70
2017-10-14T15:40:08.218Z,18.70
2017-10-14T15:42:35.770Z,18.70
2017-10-14T15:45:03.298Z,18.60
2017-10-14T15:47:30.859Z,18.50
2017-10-14T15:49:58.399Z,18.40
2017-10-14T15:52:25.963Z,18.30
2017-10-14T15:54:53.507Z,18.20
2017-10-14T15:57:21.063Z,18.10
2017-10-14T15:59:48.594Z,17.90
2017-10-14T16:02:16.160Z,17.80
2017-10-14T16:04:43.694Z,17.70
2017-10-14T16:07:12.017Z,17.50
2017-10-14T16:09:39.544Z,17.50
2017-10-14T16:12:07.103Z,17.40
2017-10-14T16:14:34.631Z,17.30
2017-10-14T16:17:02.161Z,17.30
2017-10-14T16:19:29.706Z,17.10
2017-10-14T16:21:57.236Z,17.00
2017-10-14T16:24:24.795Z,16.80
2017-10-14T16:26:52.327Z,16.80
2017-10-14T16:29:19.888Z,16.70
2017-10-14T16:31:47.472Z,16.60
2017-10-14T16:34:15.035Z,16.50
2017-10-14T16:36:43.330Z,16.30
2017-10-14T16:39:10.884Z,16.30
2017-10-14T16:41:38.411Z,16.20
2017-10-14T16:44:05.976Z,16.10
2017-10-14T16:46:34.278Z,16.00
2017-10-14T16:49:01.835Z,16.00
2017-10-14T16:51:29.369Z,15.90
2017-10-14T16:53:57.687Z,15.80
2017-10-14T16:56:25.215Z,15.70
2017-10-14T16:58:53.535Z,15.60
2017-10-14T17:01:21.068Z,15.60
2017-10-14T17:03:48.632Z,15.50
2017-10-14T17:06:16.158Z,15.50
2017-10-14T17:08:43.710Z,15.40
2017-10-14T17:11:11.234Z,15.40
2017-10-14T17:13:38.778Z,15.30
2017-10-14T17:16:06.310Z,15.20
2017-10-14T17:18:34.624Z,15.20
2017-10-14T17:21:02.150Z,15.20
2017-10-14T17:23:30.448Z,15.10
2017-10-14T17:25:58.004Z,15.10
2017-10-14T17:28:25.537Z,15.10
2017-10-14T17:30:53.863Z,14.90
2017-10-14T17:33:21.404Z,14.90
2017-10-14T17:35:48.961Z,14.80
2017-10-14T17:38:16.503Z,14.70
2017-10-14T17:40:44.075Z,14.70
2017-10-14T17:43:11.616Z,14.70
2017-10-14T17:45:39.953Z,14.80
2017-10-14T17:48:07.474Z,14.80
2017-10-14T17:50:36.788Z,14.70
2017-10-14T17:53:04.319Z,14.60
2017-10-14T17:55:32.643Z,14.50
2017-10-14T17:58:00.178Z,14.50
2017-10-14T18:00:28.264Z,14.40
2017-10-14T18:02:55.976Z,14.40
2017-10-14T18:05:23.543Z,14.40
2017-10-14T18:07:51.847Z,14.30
2017-10-14T18:10:19.421Z,14.30
2017-10-14T18:12:46.958Z,14.40
2017-10-14T18:15:15.271Z,14.70
2017-10-14T18:17:42.807Z,14.70
2017-10-14T18:20:10.371Z,14.80
2017-10-14T18:22:37.904Z,14.80
2017-10-14T18:25:06.238Z,14.80
2017-10-14T18:27:33.769Z,14.80
2017-10-14T18:30:01.303Z,14.70
2017-10-14T18:32:29.622Z,14.40
2017-10-14T18:34:57.163Z,14.40
2017-10-14T18:37:24.730Z,14.30
2017-10-14T18:39:52.283Z,14.20
2017-10-14T18:42:19.843Z,14.10
2017-10-14T18:44:47.374Z,14.00
2017-10-14T18:47:15.711Z,13.90
2017-10-14T18:49:44.020Z,13.90
2017-10-14T18:52:11.579Z,13.90
2017-10-14T18:54:39.127Z,13.90
2017-10-14T18:57:06.678Z,13.90
2017-10-14T18:59:34.218Z,13.90
2017-10-14T19:02:01.783Z,13.90
2017-10-14T19:04:29.315Z,14.00
2017-10-14T19:06:56.884Z,14.10
2017-10-14T19:09:24.420Z,14.10
2017-10-14T19:11:52.748Z,14.20
2017-10-14T19:14:20.276Z,14.20
2017-10-14T19:16:47.837Z,14.20
2017-10-14T19:19:15.392Z,14.20
2017-10-14T19:21:42.965Z,14.10
2017-10-14T19:24:10.819Z,14.10
2017-10-14T19:26:38.347Z,14.20
2017-10-14T19:29:06.669Z,14.00
2017-10-14T19:31:34.212Z,14.00
2017-10-14T19:34:01.856Z,13.90
2017-10-14T19:36:30.154Z,13.60
2017-10-14T19:38:57.774Z,13.50
2017-10-14T19:41:25.302Z,13.40
2017-10-14T19:43:52.865Z,13.40
2017-10-14T19:46:20.400Z,13.30
2017-10-14T19:48:47.974Z,13.20
2017-10-14T19:51:15.510Z,13.10
2017-10-14T19:53:43.079Z,13.00
2017-10-14T19:56:10.618Z,13.00
2017-10-14T19:58:38.938Z,12.90
2017-10-14T20:01:06.477Z,12.90
2017-10-14T20:03:34.122Z,12.90
2017-10-14T20:06:01.660Z,12.90
2017-10-14T20:08:29.979Z,12.90
2017-10-14T20:10:57.506Z,12.90
2017-10-14T20:13:25.822Z,12.80
2017-10-14T20:15:53.368Z,12.80
2017-10-14T20:18:20.945Z,12.80
2017-10-14T20:20:48.475Z,12.80
2017-10-14T20:23:16.043Z,12.80
2017-10-14T20:25:43.583Z,12.70
2017-10-14T20:28:11.875Z,12.50
2017-10-14T20:30:39.442Z,12.60
2017-10-14T20:33:06.972Z,12.60
2017-10-14T20:35:35.299Z,12.90
2017-10-14T20:38:02.827Z,12.90
2017-10-14T20:40:31.147Z,13.00
2017-10-14T20:42:58.677Z,13.00
2017-10-14T20:45:26.286Z,13.10
2017-10-14T20:47:53.824Z,13.00
2017-10-14T20:50:21.387Z,13.10
2017-10-14T20:52:48.925Z,12.90
2017-10-14T20:55:16.485Z,12.90
2017-10-14T20:57:44.032Z,12.80
2017-10-14T21:00:11.599Z,12.80
2017-10-14T21:02:39.151Z,12.80
2017-10-14T21:05:06.680Z,12.80
2017-10-14T21:07:35.015Z,12.60
2017-10-14T21:10:02.576Z,12.60
2017-10-14T21:12:30.098Z,12.40
2017-10-14T21:14:58.420Z,12.50
2017-10-14T21:17:25.955Z,12.50
2017-10-14T21:19:53.507Z,12.50
2017-10-14T21:22:21.048Z,12.50
2017-10-14T21:24:49.375Z,12.50
2017-10-14T21:27:16.903Z,12.50
2017-10-14T21:29:44.471Z,12.50
2017-10-14T21:32:12.008Z,12.50
2017-10-14T21:34:40.303Z,12.40
2017-10-14T21:37:07.864Z,12.40
2017-10-14T21:39:35.409Z,12.30
2017-10-14T21:42:02.982Z,12.30
2017-10-14T21:44:30.519Z,12.30
2017-10-14T21:46:58.863Z,12.30
2017-10-14T21:49:26.407Z,12.30
2017-10-14T21:51:53.968Z,12.30
2017-10-14T21:54:22.275Z,12.20
2017-10-14T21:56:49.834Z,12.10
2017-10-14T21:59:17.378Z,12.10
2017-10-14T22:01:44.931Z,12.20
2017-10-14T22:04:12.460Z,12.20
2017-10-14T22:06:40.018Z,12.20
2017-10-14T22:09:07.555Z,12.20
2017-10-14T22:11:35.871Z,12.20
2017-10-14T22:14:03.425Z,12.20
2017-10-14T22:16:30.976Z,12.20
2017-10-14T22:18:58.508Z,12.10
2017-10-14T22:21:26.830Z,11.70
2017-10-14T22:23:54.366Z,11.60
2017-10-14T22:26:21.931Z,11.60
2017-10-14T22:28:49.464Z,11.60
2017-10-14T22:52:17.945Z,10.70
2017-10-14T22:54:45.481Z,10.70
2017-10-14T22:57:13.038Z,10.60
2017-10-14T22:59:57.802Z,10.50
2017-10-14T23:02:25.372Z,10.50
2017-10-14T23:04:52.920Z,10.50
2017-10-14T23:07:20.490Z,10.60
2017-10-14T23:09:48.032Z,10.70
2017-10-14T23:12:15.601Z,10.80
2017-10-14T23:14:43.150Z,10.80
2017-10-14T23:17:10.691Z,10.80
2017-10-14T23:19:39.012Z,10.90
2017-10-14T23:22:06.547Z,10.90
2017-10-14T23:24:34.107Z,11.00
2017-10-14T23:27:01.636Z,11.00
2017-10-14T23:29:29.971Z,11.00
2017-10-14T23:31:57.507Z,11.00
2017-10-14T23:34:25.067Z,11.10
2017-10-14T23:36:52.607Z,11.10
2017-10-14T23:39:20.922Z,11.10
2017-10-14T23:42:09.080Z,11.00
2017-10-14T23:44:36.655Z,11.00
2017-10-14T23:47:04.200Z,11.00
2017-10-14T23:49:31.750Z,10.90
2017-10-14T23:51:59.294Z,10.80
2017-10-14T23:54:26.863Z,10.70
2017-10-14T23:56:54.398Z,10.60
2017-10-14T23:59:21.962Z,10.50
